Grand Rapids, MI (49507)

12:46 AM EDT on September 21, 2014 (GMT -0400)
Alger Heights | Change Station
CLOSE
Current Station
Personal Weather Station
Location: Grand Rapids, MI
Elevation: 710 ft
Nearby Weather Stations

Elev 710 ft 42.92 °N, 85.64 °W | Updated 43 seconds ago

Clear
Clear
64.5 °F
Feels Like 64.5 °F
N
1.0
Wind Variable Wind from West
Gusts 1.0 mph

Today
High -- | Low -- °F
--% Chance of Precip.
Yesterday
High -- | Low -- °F
Precip. -- in
7:28 AM 7:41 PM
Waning Crescent, 8% visible
Pressure 29.72 in
Visibility 3.0 miles
Clouds Few 400 ft
Dew Point 63 °F
Humidity 93%
Rainfall 0.00 in
Snow Depth Not available.
UV 0.0 out of 12
Pollen 2.10 out of 12
Ozone Good
PM2.5 Moderate
Flu Activity Not available.
SPECI KGRR 210436Z AUTO 20008KT 3SM BR FEW004 18/18 A2972 RMK AO2 T01830183 $

More Conditions Fewer Conditions

Pressure 29.72 in
Visibility 3.0 miles
Clouds Few 400 ft
Dew Point 63 °F
Humidity 93%
Rainfall 0.00 in
Snow Depth Not available.
UV 0.0 out of 12
Pollen 2.10 out of 12
Ozone Good
PM2.5 Moderate
Flu Activity Not available.
SPECI KGRR 210436Z AUTO 20008KT 3SM BR FEW004 18/18 A2972 RMK AO2 T01830183 $

More Conditions Fewer Conditions

10-Day Weather Forecast

Almanac

Astronomy

Sep. 21, 2014 Rise Set
Actual Time 7:28 AM EDT 7:41 PM EDT
Civil Twilight 7:00 AM EDT 8:09 PM EDT
Nautical Twilight 6:27 AM EDT 8:43 PM EDT
Astronomical Twilight 5:53 AM EDT 9:17 PM EDT
Moon 4:59 AM EDT 6:19 PM EDT
Length of Visible Light 13h 09m
Length of Day
12h 12m
Tomorrow will be 2m 52s shorter.
Waning Crescent, 8% of the Moon is Illuminated
Today
Waning Crescent
Sep 24
New
Oct 1
First Quarter
Oct 8
Full
Oct 15
Last Quarter

Today's Extremes

State Highs State Lows

Community

WunderPhotos

Upload Photos

1,755,086 photos uploaded!

Nearby

Air Quality

  Air Quality AQ Index Pollutant
Yesterday Good
OZONE
Yesterday Good
PM2.5
Current Moderate
PM2.5
Current Good
OZONE
Saturday Good
OZONE
Saturday Good
PM2.5
Sunday Good
OZONE
Sunday Good
PM2.5
Monday Good
OZONE
Monday Good
PM2.5

Snow Depth

Station Depth Elevation
No new snow has been reported.

Earthquake Activity

City Distance Mag. Time & Date
No recent earthquake activity has been reported nearby.
Minimum magnitude displayed is 2.5.

Coastal Water Temperatures

Place Temperature
Holland, MI 62.1 °F

Nearby Weather Stations